KABY/ABY METAR and TAF weather

Enter ICAO airport designator
Station Type Date Time Source
KABY METAR 2018/07/16 23:53 UTC NOAA

KABY 162353Z AUTO VRB03KT 10SM SCT060 26/23 A3001 RMK AO2 RAB2257E43 SLP160 P0000 60000 T02560228 10328 20256 50000


Station Type Date Time Source
KABY Decoded METAR 2018/07/16 23:53 UTC NOAA

ALBANY SOUTHWEST GEORGIA, GA, United States (KABY) 31-32N 084-12W 58M
Jul 16, 2018 - 07:53 PM EDT / 2018.07.16 2353 UTC
Wind: Variable at 3 MPH (3 KT):0
Visibility: 10 mile(s):0
Sky conditions: partly cloudy
Precipitation last hour: A trace
Temperature: 78.1 F (25.6 C)
Dew Point: 73.0 F (22.8 C)
Relative Humidity: 84%
Pressure (altimeter): 30.01 in. Hg (1016 hPa)
Pressure tendency: 0.00 inches (0.0 hPa) higher than three hours ago
ob: KABY 162353Z AUTO VRB03KT 10SM SCT060 26/23 A3001 RMK AO2 RAB2257E43 SLP160 P0000 60000 T02560228 10328 20256 50000
cycle: 0

Station Type Date Time Source
KABY TAF 2018/07/16 21:06 UTC NOAA

TAF
AMD KABY 162103Z 1621/1718 23007KT 6SM SHRA VCTS BKN029CB
FM162200 22008KT 6SM TSRA BKN030CB
FM170000 VRB02KT P6SM SCT010


Example: see airport list